Flight Track Log - Related Links

Times and Time Zones

All times are in EDT time to prevent confusion due to time zone crossing. See the N498QS flight status page for this flight to view local times or setup timezone preferences in your user account.


Time Position Orientation Groundspeed Altitude Reporting Facility
EDT Latitude Longitude Course Direction KTS MPH feet Rate Location/Type
Sun 03:06:04 PM 37.7947 -87.1025 74° East 227 261 5,200  Level Indianapolis Center
Sun 03:07:06 PM 37.8669 -87.0775 15° North 264 304 9,500 3,242 Climbing Indianapolis Center
Sun 03:08:08 PM 37.9022 -86.9839 64° Northeast 309 356 11,900 2,855 Climbing Indianapolis Center
Sun 03:09:10 PM 37.9072 -86.8606 87° East 352 405 15,400 2,928 Climbing Indianapolis Center
Sun 03:10:13 PM 37.9078 -86.7272 90° East 376 433 18,000 2,880 Climbing Indianapolis Center
Sun 03:11:00 PM 37.9383 -86.3011 74° East  Level FlightAware Approximate
Sun 03:11:15 PM 37.9083 -86.5550 90° East 404 465 21,400  Level Indianapolis Center
Sun 03:12:17 PM 37.9083 -86.4033 90° East 427 491 24,300 2,565 Climbing Indianapolis Center
Sun 03:13:19 PM 37.9078 -86.2469 90° East 441 507 26,700 2,226 Climbing Indianapolis Center
Sun 03:14:21 PM 37.9064 -86.0853 91° East 455 524 28,900 2,323 Climbing Indianapolis Center
Sun 03:15:23 PM 37.9061 -85.9186 90° East 471 542 31,500 2,565 Climbing Indianapolis Center
Sun 03:16:25 PM 37.9044 -85.7564 91° East 463 533 34,200 2,081 Climbing Indianapolis Center
Sun 03:17:27 PM 37.9039 -85.5933 90° East 462 532 35,800 1,790 Climbing Indianapolis Center
Sun 03:18:29 PM 37.9022 -85.3883 91° East 484 557 37,900 1,548 Climbing Indianapolis Center
Sun 03:19:31 PM 37.9000 -85.2214 91° East 477 549 39,000 1,016 Climbing Indianapolis Center
Sun 03:20:33 PM 37.9000 -85.0422 90° East 491 565 40,000 968 Climbing Indianapolis Center
Sun 03:21:35 PM 37.8994 -84.8683 90° East 495 570 41,000 484 Climbing Indianapolis Center
Sun 03:22:37 PM 37.8922 -84.6953 93° East 497 572 41,000  Level Indianapolis Center
Sun 03:23:39 PM 37.8894 -84.5192 91° East 499 574 41,000  Level Indianapolis Center
Sun 03:24:41 PM 37.8856 -84.3139 91° East 499 574 41,000  Level Indianapolis Center
Sun 03:25:43 PM 37.8825 -84.1375 91° East 500 575 41,000  Level Indianapolis Center
Sun 03:26:45 PM 37.8778 -83.9606 92° East 501 577 41,000  Level Indianapolis Center
Sun 03:27:47 PM 37.8753 -83.7806 91° East 509 586 41,000  Level Indianapolis Center
Sun 03:28:49 PM 37.8708 -83.6036 92° East 504 580 41,000  Level Indianapolis Center
Sun 03:29:51 PM 37.8653 -83.4267 92° East 501 577 41,000  Level Indianapolis Center
Sun 03:30:53 PM 37.8594 -83.2214 92° East 500 575 41,000  Level Indianapolis Center
Sun 03:31:55 PM 37.8322 -83.0506 101° East 494 568 41,000  Level Indianapolis Center
Sun 03:32:57 PM 37.8064 -82.8783 101° East 496 571 41,000  Level Indianapolis Center
Sun 03:33:59 PM 37.7814 -82.7094 101° East 489 563 41,000  Level Indianapolis Center
Sun 03:35:01 PM 37.7553 -82.5372 101° East 495 570 41,000  Level Indianapolis Center
Sun 03:36:03 PM 37.7286 -82.3628 101° East 503 579 41,000  Level Indianapolis Center
Sun 03:37:05 PM 37.6986 -82.1614 101° East 499 574 41,000  Level Indianapolis Center
Sun 03:38:07 PM 37.7008 -81.9856 89° East 504 580 41,000  Level Indianapolis Center
Sun 03:39:09 PM 37.7178 -81.8056 83° East 515 593 41,000  Level Indianapolis Center
Sun 03:40:12 PM 37.7344 -81.6258 83° East 515 593 41,000  Level Indianapolis Center
Sun 03:41:14 PM 37.7531 -81.4361 83° East 516 594 41,000  Level Indianapolis Center
Sun 03:41:41 PM 37.7564 -81.3708 86° East 516 594 41,000  Level Washington Center
Sun 03:42:41 PM 37.7733 -81.1906 83° East 511 588 41,000  Level Washington Center
Sun 03:43:41 PM 37.7881 -81.0106 84° East 511 588 41,000  Level Washington Center
Sun 03:44:41 PM 37.8008 -80.8142 85° East 517 595 41,000  Level Washington Center
Sun 03:45:41 PM 37.8128 -80.6311 85° East 517 595 41,000  Level Washington Center
Sun 03:46:41 PM 37.8244 -80.4531 85° East 517 595 41,000  Level Washington Center
Sun 03:47:41 PM 37.8358 -80.2750 85° East 512 589 41,000  Level Washington Center
Sun 03:48:41 PM 37.8464 -80.1072 85° East 520 598 41,000  Level Washington Center
Sun 03:49:41 PM 37.8592 -79.9264 85° East 514 592 41,000  Level Washington Center
Sun 03:50:41 PM 37.8697 -79.7456 86° East 514 592 41,000  Level Washington Center
Sun 03:51:41 PM 37.8803 -79.5647 86° East 514 592 41,000  Level Washington Center
Sun 03:52:41 PM 37.8881 -79.3833 87° East 514 592 41,000  Level Washington Center
Sun 03:53:41 PM 37.9000 -79.2025 85° East 514 592 41,000  Level Washington Center
Sun 03:54:41 PM 37.9161 -79.0031 84° East 514 592 41,000  Level Washington Center
Sun 03:55:41 PM 37.9400 -78.8225 80° East 514 592 41,000  Level Washington Center
Sun 03:56:41 PM 37.9614 -78.6417 81° East 520 598 41,000  Level Washington Center
Sun 03:57:41 PM 37.9825 -78.4581 82° East 520 598 41,000  Level Washington Center
Sun 03:58:41 PM 38.0056 -78.2772 81° East 520 598 41,000  Level Washington Center
Sun 03:59:41 PM 38.0406 -78.1044 76° East 515 593 41,000  Level Washington Center
Sun 04:00:41 PM 38.1147 -77.9486 59° Northeast 499 574 41,000  Level Washington Center
Sun 04:01:41 PM 38.1947 -77.7900 57° Northeast 511 588 41,000  Level Washington Center
Sun 04:02:41 PM 38.2728 -77.6308 58° Northeast 522 601 41,000  Level Washington Center
Sun 04:03:41 PM 38.3503 -77.4714 58° Northeast 522 601 41,000  Level Washington Center
Sun 04:04:41 PM 38.4278 -77.3144 58° Northeast 527 606 41,000  Level Washington Center
Sun 04:05:41 PM 38.5050 -77.1569 58° Northeast 527 606 41,000 -1,150 Level Washington Center
Sun 04:06:41 PM 38.5964 -77.0261 48° Northeast 536 617 38,700 -2,350 Descending Washington Center
Sun 04:07:41 PM 38.7042 -76.9006 42° Northeast 528 608 36,300 -1,350 Descending Washington Center
Sun 04:08:41 PM 38.8117 -76.7719 43° Northeast 521 600 36,000 -1,400 Descending Washington Center
Sun 04:09:41 PM 38.9233 -76.6428 42° Northeast 527 606 33,500 -2,650 Descending Washington Center
Sun 04:10:41 PM 39.0328 -76.5108 43° Northeast 527 606 30,700 -2,750 Descending Washington Center
Sun 04:11:41 PM 39.1422 -76.3811 43° Northeast 527 606 28,000 -2,650 Descending Washington Center
Sun 04:12:41 PM 39.2428 -76.2617 43° Northeast 517 595 25,400 -2,000 Descending Washington Center
Sun 04:13:41 PM 39.3456 -76.1444 41° Northeast 505 581 24,000 -1,463 Descending Washington Center
Sun 04:14:03 PM 39.3922 -76.0858 44° Northeast 492 566 23,400 -2,049 Descending FAA TRACON SMA TRACON (SMA)
Sun 04:14:22 PM 39.4231 -76.0481 43° Northeast 494 568 22,600 -2,769 Descending FAA TRACON SMA TRACON (SMA)
Sun 04:14:42 PM 39.4589 -76.0042 43° Northeast 489 563 21,600 -3,000 Descending FAA TRACON SMA TRACON (SMA)
Sun 04:15:02 PM 39.4897 -75.9675 43° Northeast 471 542 20,600 -3,000 Descending FAA TRACON SMA TRACON (SMA)
Sun 04:15:22 PM 39.5189 -75.9328 43° Northeast 467 537 19,600 -3,300 Descending FAA TRACON SMA TRACON (SMA)
Sun 04:15:42 PM 39.5542 -75.8903 43° Northeast 451 519 18,400 -2,850 Descending FAA TRACON SMA TRACON (SMA)
Sun 04:16:02 PM 39.5817 -75.8567 43° Northeast 444 511 17,700 -1,200 Descending FAA TRACON SMA TRACON (SMA)
Sun 04:16:22 PM 39.6075 -75.8264 42° Northeast 436 502 17,600 -1,500 Descending FAA TRACON SMA TRACON (SMA)
Sun 04:16:42 PM 39.6400 -75.7861 44° Northeast 409 471 16,700 -2,400 Descending FAA TRACON SMA TRACON (SMA)
Sun 04:17:02 PM 39.6633 -75.7569 44° Northeast 406 467 16,000 -2,100 Descending FAA TRACON SMA TRACON (SMA)
Sun 04:17:22 PM 39.6900 -75.7247 43° Northeast 400 460 15,300 -2,250 Descending FAA TRACON SMA TRACON (SMA)
Sun 04:17:42 PM 39.7206 -75.6872 43° Northeast 397 457 14,500 -2,250 Descending FAA TRACON SMA TRACON (SMA)
Sun 04:18:02 PM 39.7453 -75.6575 43° Northeast 394 453 13,800 -1,950 Descending FAA TRACON SMA TRACON (SMA)
Sun 04:18:22 PM 39.7667 -75.6311 43° Northeast 380 437 13,200 -1,200 Descending FAA TRACON SMA TRACON (SMA)
Sun 04:18:42 PM 39.7978 -75.5975 40° Northeast 358 412 13,000 -300 Descending FAA TRACON SMA TRACON (SMA)
Sun 04:19:02 PM 39.8219 -75.5742 37° Northeast 351 404 13,000  Level FAA TRACON SMA TRACON (SMA)
Sun 04:19:22 PM 39.8467 -75.5519 35° Northeast 351 404 13,000  Level FAA TRACON SMA TRACON (SMA)
Sun 04:19:42 PM 39.8708 -75.5297 35° Northeast 346 398 13,000  Level FAA TRACON SMA TRACON (SMA)
Sun 04:20:02 PM 39.9000 -75.5025 36° Northeast 345 397 13,000  Level FAA TRACON SMA TRACON (SMA)
Sun 04:20:22 PM 39.9253 -75.4794 35° Northeast 345 397 13,000  Level FAA TRACON SMA TRACON (SMA)
Sun 04:20:42 PM 39.9547 -75.4519 36° Northeast 343 395 13,000  Level FAA TRACON SMA TRACON (SMA)
Sun 04:21:02 PM 39.9767 -75.4300 37° Northeast 343 395 13,000  Level FAA TRACON SMA TRACON (SMA)
Sun 04:21:22 PM 40.0033 -75.4072 33° Northeast 341 392 13,000  Level FAA TRACON SMA TRACON (SMA)
Sun 04:21:42 PM 40.0272 -75.3850 35° Northeast 340 391 13,000  Level FAA TRACON SMA TRACON (SMA)
Sun 04:22:01 PM 40.0561 -75.3594 34° Northeast 341 392 13,000  Level FAA TRACON SMA TRACON (SMA)
Sun 04:22:21 PM 40.0808 -75.3347 37° Northeast 342 394 13,000  Level FAA TRACON SMA TRACON (SMA)
Sun 04:22:41 PM 40.1025 -75.3147 35° Northeast 340 391 13,000  Level FAA TRACON SMA TRACON (SMA)
Sun 04:23:02 PM 40.1336 -75.2858 35° Northeast 340 391 13,000  Level FAA TRACON SMA TRACON (SMA)
Sun 04:23:22 PM 40.1583 -75.2628 35° Northeast 342 394 13,000 -450 Level FAA TRACON SMA TRACON (SMA)
Sun 04:23:42 PM 40.1817 -75.2411 35° Northeast 335 386 12,700 -1,200 Descending FAA TRACON SMA TRACON (SMA)
Sun 04:24:02 PM 40.2036 -75.2206 36° Northeast 316 364 12,200 -1,800 Descending FAA TRACON SMA TRACON (SMA)
Sun 04:24:22 PM 40.2308 -75.1950 36° Northeast 314 361 11,500 -1,650 Descending FAA TRACON SMA TRACON (SMA)
Sun 04:24:42 PM 40.2497 -75.1761 37° Northeast 310 357 11,100 -1,650 Descending FAA TRACON SMA TRACON (SMA)
Sun 04:25:02 PM 40.2783 -75.1514 33° Northeast 302 348 10,400 -1,756 Descending FAA TRACON SMA TRACON (SMA)
Sun 04:25:23 PM 40.2992 -75.1317 36° Northeast 293 337 9,900 -1,463 Descending FAA TRACON SMA TRACON (SMA)
Sun 04:25:43 PM 40.3161 -75.1142 38° Northeast 290 334 9,400 -1,846 Descending FAA TRACON SMA TRACON (SMA)
Sun 04:26:02 PM 40.3400 -75.0853 43° Northeast 278 320 8,700 -1,846 Descending FAA TRACON SMA TRACON (SMA)
Sun 04:26:22 PM 40.3556 -75.0622 48° Northeast 280 322 8,200 -1,350 Descending FAA TRACON SMA TRACON (SMA)
Sun 04:26:42 PM 40.3706 -75.0422 45° Northeast 274 315 7,800 -1,500 Descending FAA TRACON SMA TRACON (SMA)
Sun 04:27:02 PM 40.3914 -75.0125 47° Northeast 267 307 7,200 -1,500 Descending FAA TRACON SMA TRACON (SMA)
Sun 04:27:22 PM 40.4067 -74.9914 46° Northeast 263 303 6,800 -1,350 Descending FAA TRACON SMA TRACON (SMA)
Sun 04:27:42 PM 40.4222 -74.9697 47° Northeast 263 303 6,300 -1,650 Descending FAA TRACON SMA TRACON (SMA)
Sun 04:28:02 PM 40.4400 -74.9431 49° Northeast 263 303 5,700 -1,650 Descending FAA TRACON SMA TRACON (SMA)
Sun 04:28:22 PM 40.4558 -74.9217 46° Northeast 263 303 5,200 -1,500 Descending FAA TRACON SMA TRACON (SMA)
Sun 04:28:42 PM 40.4717 -74.8992 47° Northeast 262 302 4,700 -1,650 Descending FAA TRACON SMA TRACON (SMA)
Sun 04:29:02 PM 40.4908 -74.8725 47° Northeast 261 300 4,100 -1,500 Descending FAA TRACON SMA TRACON (SMA)
Sun 04:29:22 PM 40.5033 -74.8483 56° Northeast 267 307 3,700 -1,500 Descending FAA TRACON SMA TRACON (SMA)
Sun 04:29:42 PM 40.5086 -74.8192 77° East 277 319 3,100 -1,171 Descending FAA TRACON SMA TRACON (SMA)
Sun 04:30:03 PM 40.5139 -74.7903 76° East 272 313 2,900 -293 Descending FAA TRACON SMA TRACON (SMA)
Sun 04:30:23 PM 40.5139 -74.7903 123° Southeast 272 313 2,900 135 Level FAA TRACON SMA TRACON (SMA)
Sun 04:31:32 PM 40.5500 -74.6500 71° East 254 292 3,100 49 Climbing New York TRACON
Sun 04:32:26 PM 40.5833 -74.5833 57° Northeast 251 289 3,000 -53 Descending New York TRACON
Sun 04:33:26 PM 40.6167 -74.5000 62° Northeast 249 287 3,000  Level New York TRACON
Sun 04:34:26 PM 40.6500 -74.4333 57° Northeast 238 274 3,000 -100 Level New York TRACON
Sun 04:35:26 PM 40.6833 -74.3500 62° Northeast 202 232 2,800 -500 Descending New York TRACON
Sun 04:36:26 PM 40.7000 -74.3000 66° East 189 217 2,000 -350 Descending New York TRACON
Sun 04:37:26 PM 40.7333 -74.2500 49° Northeast 175 201 2,100 -200 Climbing New York TRACON
Sun 04:38:26 PM 40.7667 -74.2000 49° Northeast 180 207 1,600 -286 Descending New York TRACON
Sun 04:39:32 PM 40.8000 -74.1500 49° Northeast 152 175 1,500 -300 Descending New York TRACON
Sun 04:40:26 PM 40.8167 -74.1167 57° Northeast 140 161 1,000 -556 Descending New York TRACON
Sun 04:42:00 PM 40.8500 -74.0500 57° Northeast  Level FlightAware Approximate
Sun 04:49:00 PM 40.8501 -74.0608 57° Northeast  Level Estimated
Sun 04:50:00 PM 40.8501 -74.0608 57° Northeast  Level Estimated

Login

Don't have an account? Register now (free) for customized features, flight alerts, and more!